CheckWX is a tool to help pilots better visualize weather data.  It is not intended as a substitute for an official pre-flight weather briefing.

20:44:01 UTC

KAWM METAR
West Memphis Municipal Airport
West Memphis, Arkansas, USA
Current

51 mins ago

KAWM 181953Z AUTO 02014KT 10SM CLR 04/M01 A3038 RMK AO2 SLP289 T00441011 TSNO $
Observed
Feb-18 @ 19:53 UTC
Wind
  • 020° at 14 KTS
Visibility
10 SM
Flight Rules
VFR
Cloud Levels
  • Clear skies
Temperature
C / 39°F
Dewpoint
-1°C / 30°F
Humidity
70%
Altimeter
30.38" Hg
Pressure
1028.9 hPa
Previous

2 hours ago

KAWM 181853Z AUTO 02011KT 10SM CLR 05/M02 A3039 RMK AO2 SLP293 T00501017 TSNO $
Observed
Feb-18 @ 18:53 UTC
Wind
  • 020° at 11 KTS
Visibility
10 SM
Flight Rules
VFR
Cloud Levels
  • Clear skies
Temperature
C / 41°F
Dewpoint
-2°C / 28°F
Humidity
61%
Altimeter
30.39" Hg
Pressure
1029.3 hPa
Previous

13 hours ago

KAWM 180753Z AUTO 34007KT 10SM CLR 02/M02 A3019 RMK AO2 SLP224 T00171022 TSNO $
Observed
Feb-18 @ 07:53 UTC
Wind
  • 340° at 7 KTS
Visibility
10 SM
Flight Rules
VFR
Cloud Levels
  • Clear skies
Temperature
C / 36°F
Dewpoint
-2°C / 28°F
Humidity
75%
Altimeter
30.19" Hg
Pressure
1022.4 hPa